sensor_id;sensor_type;location;lat;lon;timestamp;pressure;altitude;pressure_sealevel;temperature;humidity
62895;BME280;49204;44.916;37.998;2023-04-04T00:00:56;101325.39;;;8.03;75.47
62895;BME280;49204;44.916;37.998;2023-04-04T00:03:24;101325.44;;;8.00;75.48
62895;BME280;49204;44.916;37.998;2023-04-04T00:05:53;101319.36;;;7.98;75.48
62895;BME280;49204;44.916;37.998;2023-04-04T00:08:23;101312.42;;;7.96;75.58
62895;BME280;49204;44.916;37.998;2023-04-04T00:10:56;101308.14;;;7.91;75.66
62895;BME280;49204;44.916;37.998;2023-04-04T00:13:26;101306.88;;;7.88;75.70
62895;BME280;49204;44.916;37.998;2023-04-04T00:15:55;101309.13;;;7.86;75.57
62895;BME280;49204;44.916;37.998;2023-04-04T00:18:23;101295.14;;;7.84;75.51
62895;BME280;49204;44.916;37.998;2023-04-04T00:20:52;101302.18;;;7.82;75.50
62895;BME280;49204;44.916;37.998;2023-04-04T00:23:21;101304.41;;;7.81;75.58
62895;BME280;49204;44.916;37.998;2023-04-04T00:25:53;101304.45;;;7.78;75.65
62895;BME280;49204;44.916;37.998;2023-04-04T00:28:22;101306.23;;;7.76;75.72
62895;BME280;49204;44.916;37.998;2023-04-04T00:30:51;101306.69;;;7.75;75.67
62895;BME280;49204;44.916;37.998;2023-04-04T00:33:19;101308.00;;;7.75;75.59
62895;BME280;49204;44.916;37.998;2023-04-04T00:35:48;101303.66;;;7.72;75.57
62895;BME280;49204;44.916;37.998;2023-04-04T00:38:17;101300.69;;;7.68;75.45
62895;BME280;49204;44.916;37.998;2023-04-04T00:40:48;101308.59;;;7.65;75.34
62895;BME280;49204;44.916;37.998;2023-04-04T00:43:18;101303.91;;;7.60;75.28
62895;BME280;49204;44.916;37.998;2023-04-04T00:45:46;101304.47;;;7.52;75.16
62895;BME280;49204;44.916;37.998;2023-04-04T00:48:15;101305.45;;;7.45;75.21
62895;BME280;49204;44.916;37.998;2023-04-04T00:50:44;101301.20;;;7.38;75.18
62895;BME280;49204;44.916;37.998;2023-04-04T00:53:12;101303.06;;;7.32;75.13
62895;BME280;49204;44.916;37.998;2023-04-04T00:55:41;101303.96;;;7.30;75.16
62895;BME280;49204;44.916;37.998;2023-04-04T00:58:10;101307.96;;;7.27;75.15
62895;BME280;49204;44.916;37.998;2023-04-04T01:00:39;101309.33;;;7.22;75.37
62895;BME280;49204;44.916;37.998;2023-04-04T01:03:08;101311.15;;;7.17;75.52
62895;BME280;49204;44.916;37.998;2023-04-04T01:05:40;101312.45;;;7.17;75.59
62895;BME280;49204;44.916;37.998;2023-04-04T01:08:08;101307.69;;;7.15;75.69
62895;BME280;49204;44.916;37.998;2023-04-04T01:10:39;101311.23;;;7.12;75.79
62895;BME280;49204;44.916;37.998;2023-04-04T01:13:09;101299.03;;;7.10;75.87
62895;BME280;49204;44.916;37.998;2023-04-04T01:15:39;101295.58;;;7.08;75.85
62895;BME280;49204;44.916;37.998;2023-04-04T01:18:10;101294.81;;;7.03;75.70
62895;BME280;49204;44.916;37.998;2023-04-04T01:20:48;101303.59;;;6.97;75.61
62895;BME280;49204;44.916;37.998;2023-04-04T01:23:14;101295.39;;;6.91;75.72
62895;BME280;49204;44.916;37.998;2023-04-04T01:25:46;101291.08;;;6.89;75.59
62895;BME280;49204;44.916;37.998;2023-04-04T01:28:16;101297.64;;;6.87;75.50
62895;BME280;49204;44.916;37.998;2023-04-04T01:30:45;101294.66;;;6.83;75.45
62895;BME280;49204;44.916;37.998;2023-04-04T01:33:19;101296.94;;;6.76;75.67
62895;BME280;49204;44.916;37.998;2023-04-04T01:38:46;101292.27;;;6.68;75.92
62895;BME280;49204;44.916;37.998;2023-04-04T01:41:10;101292.70;;;6.66;75.95
62895;BME280;49204;44.916;37.998;2023-04-04T01:43:49;101289.72;;;6.62;76.00
62895;BME280;49204;44.916;37.998;2023-04-04T01:46:16;101296.73;;;6.60;76.00
62895;BME280;49204;44.916;37.998;2023-04-04T01:48:46;101291.51;;;6.58;75.96
62895;BME280;49204;44.916;37.998;2023-04-04T01:51:16;101294.58;;;6.57;75.87
62895;BME280;49204;44.916;37.998;2023-04-04T01:53:45;101291.12;;;6.55;75.79
62895;BME280;49204;44.916;37.998;2023-04-04T01:56:14;101291.13;;;6.54;75.87
62895;BME280;49204;44.916;37.998;2023-04-04T01:58:42;101295.97;;;6.53;75.77
62895;BME280;49204;44.916;37.998;2023-04-04T02:01:11;101294.23;;;6.50;75.88
62895;BME280;49204;44.916;37.998;2023-04-04T02:03:40;101294.23;;;6.50;75.92
62895;BME280;49204;44.916;37.998;2023-04-04T02:06:09;101292.92;;;6.50;75.90
62895;BME280;49204;44.916;37.998;2023-04-04T02:08:38;101292.47;;;6.51;75.71
62895;BME280;49204;44.916;37.998;2023-04-04T02:11:09;101290.31;;;6.50;75.53
62895;BME280;49204;44.916;37.998;2023-04-04T02:13:39;101286.01;;;6.46;75.52
62895;BME280;49204;44.916;37.998;2023-04-04T02:16:08;101283.02;;;6.42;75.63
62895;BME280;49204;44.916;37.998;2023-04-04T02:18:36;101284.33;;;6.42;75.65
62895;BME280;49204;44.916;37.998;2023-04-04T02:21:05;101286.04;;;6.43;75.53
62895;BME280;49204;44.916;37.998;2023-04-04T02:23:34;101287.78;;;6.44;75.48
62895;BME280;49204;44.916;37.998;2023-04-04T02:26:03;101288.25;;;6.42;75.61
62895;BME280;49204;44.916;37.998;2023-04-04T02:28:31;101291.28;;;6.42;75.64
62895;BME280;49204;44.916;37.998;2023-04-04T02:31:01;101299.57;;;6.43;75.51
62895;BME280;49204;44.916;37.998;2023-04-04T02:33:30;101301.75;;;6.42;75.42
62895;BME280;49204;44.916;37.998;2023-04-04T02:36:00;101297.87;;;6.40;75.44
62895;BME280;49204;44.916;37.998;2023-04-04T02:38:29;101297.87;;;6.40;75.58
62895;BME280;49204;44.916;37.998;2023-04-04T02:40:59;101299.18;;;6.40;75.50
62895;BME280;49204;44.916;37.998;2023-04-04T02:43:27;101299.20;;;6.37;75.48
62895;BME280;49204;44.916;37.998;2023-04-04T02:45:57;101296.62;;;6.34;75.54
62895;BME280;49204;44.916;37.998;2023-04-04T02:48:27;101297.52;;;6.33;75.67
62895;BME280;49204;44.916;37.998;2023-04-04T02:50:57;101300.12;;;6.34;75.66
62895;BME280;49204;44.916;37.998;2023-04-04T02:53:26;101297.06;;;6.35;75.57
62895;BME280;49204;44.916;37.998;2023-04-04T02:55:56;101297.52;;;6.34;75.47
62895;BME280;49204;44.916;37.998;2023-04-04T02:58:24;101305.31;;;6.36;75.62
62895;BME280;49204;44.916;37.998;2023-04-04T03:00:54;101304.47;;;6.34;75.55
62895;BME280;49204;44.916;37.998;2023-04-04T03:03:25;101309.30;;;6.33;75.51
62895;BME280;49204;44.916;37.998;2023-04-04T03:05:54;101306.69;;;6.31;75.52
62895;BME280;49204;44.916;37.998;2023-04-04T03:08:22;101321.09;;;6.30;75.73
62895;BME280;49204;44.916;37.998;2023-04-04T03:10:51;101321.12;;;6.27;75.66
62895;BME280;49204;44.916;37.998;2023-04-04T03:13:20;101322.48;;;6.24;75.89
62895;BME280;49204;44.916;37.998;2023-04-04T03:15:49;101324.67;;;6.21;75.95
62895;BME280;49204;44.916;37.998;2023-04-04T03:18:17;101322.51;;;6.21;76.13
62895;BME280;49204;44.916;37.998;2023-04-04T03:20:46;101320.33;;;6.22;76.26
62895;BME280;49204;44.916;37.998;2023-04-04T03:23:15;101324.66;;;6.23;76.28
62895;BME280;49204;44.916;37.998;2023-04-04T03:25:44;101319.42;;;6.23;76.77
62895;BME280;49204;44.916;37.998;2023-04-04T03:28:13;101320.27;;;6.25;76.88
62895;BME280;49204;44.916;37.998;2023-04-04T03:30:42;101319.80;;;6.28;77.12
62895;BME280;49204;44.916;37.998;2023-04-04T03:33:11;101332.83;;;6.33;76.98
62895;BME280;49204;44.916;37.998;2023-04-04T03:35:40;101335.80;;;6.40;76.80
62895;BME280;49204;44.916;37.998;2023-04-04T03:38:09;101339.17;;;6.48;76.65
62895;BME280;49204;44.916;37.998;2023-04-04T03:40:38;101337.36;;;6.55;76.67
62895;BME280;49204;44.916;37.998;2023-04-04T03:43:09;101332.86;;;6.65;76.71
62895;BME280;49204;44.916;37.998;2023-04-04T03:45:39;101334.45;;;6.75;76.68
62895;BME280;49204;44.916;37.998;2023-04-04T03:48:09;101336.91;;;6.87;76.57
62895;BME280;49204;44.916;37.998;2023-04-04T03:50:38;101334.13;;;7.00;76.45
62895;BME280;49204;44.916;37.998;2023-04-04T03:53:07;101342.23;;;7.11;76.26
62895;BME280;49204;44.916;37.998;2023-04-04T03:55:37;101344.28;;;7.21;76.07
62895;BME280;49204;44.916;37.998;2023-04-04T03:58:06;101343.23;;;7.31;75.92
62895;BME280;49204;44.916;37.998;2023-04-04T04:00:34;101337.38;;;7.43;75.80
62895;BME280;49204;44.916;37.998;2023-04-04T04:03:03;101339.37;;;7.54;75.64
62895;BME280;49204;44.916;37.998;2023-04-04T04:05:32;101334.42;;;7.63;75.47
62895;BME280;49204;44.916;37.998;2023-04-04T04:08:00;101335.09;;;7.74;75.29
62895;BME280;49204;44.916;37.998;2023-04-04T04:10:29;101331.35;;;7.87;75.23
62895;BME280;49204;44.916;37.998;2023-04-04T04:12:58;101327.96;;;8.06;75.26
62895;BME280;49204;44.916;37.998;2023-04-04T04:15:28;101321.39;;;8.29;75.24
62895;BME280;49204;44.916;37.998;2023-04-04T04:17:58;101318.36;;;8.50;75.21
62895;BME280;49204;44.916;37.998;2023-04-04T04:20:27;101320.59;;;8.69;75.01
62895;BME280;49204;44.916;37.998;2023-04-04T04:22:56;101315.33;;;8.88;74.76
62895;BME280;49204;44.916;37.998;2023-04-04T04:25:25;101311.66;;;9.15;74.60
62895;BME280;49204;44.916;37.998;2023-04-04T04:27:58;101311.90;;;9.40;74.27
62895;BME280;49204;44.916;37.998;2023-04-04T04:30:27;101306.00;;;9.66;74.02
62895;BME280;49204;44.916;37.998;2023-04-04T04:32:56;101309.20;;;9.94;74.00
62895;BME280;49204;44.916;37.998;2023-04-04T04:35:26;101307.36;;;10.29;73.90
62895;BME280;49204;44.916;37.998;2023-04-04T04:37:56;101300.16;;;10.51;73.62
62895;BME280;49204;44.916;37.998;2023-04-04T04:40:24;101296.16;;;10.67;73.51
62895;BME280;49204;44.916;37.998;2023-04-04T04:42:55;101297.45;;;10.82;73.20
62895;BME280;49204;44.916;37.998;2023-04-04T04:45:24;101305.20;;;11.01;72.89
62895;BME280;49204;44.916;37.998;2023-04-04T04:47:54;101304.86;;;11.26;72.80
62895;BME280;49204;44.916;37.998;2023-04-04T04:50:23;101298.95;;;11.57;72.85
62895;BME280;49204;44.916;37.998;2023-04-04T04:52:52;101295.83;;;11.85;72.77
62895;BME280;49204;44.916;37.998;2023-04-04T04:55:20;101285.67;;;12.11;72.58
62895;BME280;49204;44.916;37.998;2023-04-04T04:57:51;101282.07;;;12.25;71.96
62895;BME280;49204;44.916;37.998;2023-04-04T05:00:21;101285.86;;;12.42;71.35
62895;BME280;49204;44.916;37.998;2023-04-04T05:02:53;101288.84;;;12.56;70.32
62895;BME280;49204;44.916;37.998;2023-04-04T05:05:22;101284.48;;;12.77;69.51
62895;BME280;49204;44.916;37.998;2023-04-04T05:07:52;101274.27;;;13.12;69.34
62895;BME280;49204;44.916;37.998;2023-04-04T05:10:21;101272.95;;;13.44;69.14
62895;BME280;49204;44.916;37.998;2023-04-04T05:12:49;101261.45;;;13.66;68.12
62895;BME280;49204;44.916;37.998;2023-04-04T05:15:20;101265.55;;;13.83;67.09
62895;BME280;49204;44.916;37.998;2023-04-04T05:17:50;101263.78;;;14.03;66.29
62895;BME280;49204;44.916;37.998;2023-04-04T05:20:19;101255.95;;;14.20;65.46
62895;BME280;49204;44.916;37.998;2023-04-04T05:22:48;101258.59;;;14.39;64.89
62895;BME280;49204;44.916;37.998;2023-04-04T05:25:19;101260.17;;;14.62;64.28
62895;BME280;49204;44.916;37.998;2023-04-04T05:27:48;101255.25;;;14.82;63.61
62895;BME280;49204;44.916;37.998;2023-04-04T05:30:18;101254.41;;;14.99;62.01
62895;BME280;49204;44.916;37.998;2023-04-04T05:32:50;101256.01;;;15.21;61.80
62895;BME280;49204;44.916;37.998;2023-04-04T05:35:21;101251.39;;;15.51;61.99
62895;BME280;49204;44.916;37.998;2023-04-04T05:37:50;101252.42;;;15.83;61.21
62895;BME280;49204;44.916;37.998;2023-04-04T05:40:18;101249.63;;;16.02;59.98
62895;BME280;49204;44.916;37.998;2023-04-04T05:42:55;101247.30;;;16.20;58.91
62895;BME280;49204;44.916;37.998;2023-04-04T05:45:26;101250.17;;;16.49;58.72
62895;BME280;49204;44.916;37.998;2023-04-04T05:47:55;101248.28;;;16.83;57.87
62895;BME280;49204;44.916;37.998;2023-04-04T05:50:24;101241.56;;;17.15;56.70
62895;BME280;49204;44.916;37.998;2023-04-04T05:52:55;101239.52;;;17.27;55.31
62895;BME280;49204;44.916;37.998;2023-04-04T05:55:23;101229.42;;;17.18;54.10
62895;BME280;49204;44.916;37.998;2023-04-04T05:57:54;101233.24;;;16.98;54.29
62895;BME280;49204;44.916;37.998;2023-04-04T06:00:25;101229.72;;;16.58;53.23
62895;BME280;49204;44.916;37.998;2023-04-04T06:02:56;101232.11;;;16.31;53.61
62895;BME280;49204;44.916;37.998;2023-04-04T06:05:26;101221.40;;;16.33;54.17
62895;BME280;49204;44.916;37.998;2023-04-04T06:07:54;101225.94;;;16.31;53.75
62895;BME280;49204;44.916;37.998;2023-04-04T06:10:23;101224.27;;;16.37;54.09
62895;BME280;49204;44.916;37.998;2023-04-04T06:12:53;101226.05;;;16.52;54.14
62895;BME280;49204;44.916;37.998;2023-04-04T06:15:22;101225.74;;;16.97;54.03
62895;BME280;49204;44.916;37.998;2023-04-04T06:17:51;101214.84;;;17.40;53.56
62895;BME280;49204;44.916;37.998;2023-04-04T06:20:19;101209.53;;;17.68;52.84
62895;BME280;49204;44.916;37.998;2023-04-04T06:22:51;101218.51;;;17.96;51.91
62895;BME280;49204;44.916;37.998;2023-04-04T06:25:21;101214.97;;;18.31;51.47
62895;BME280;49204;44.916;37.998;2023-04-04T06:27:51;101216.53;;;18.83;51.60
62895;BME280;49204;44.916;37.998;2023-04-04T06:30:21;101207.52;;;19.44;51.27
62895;BME280;49204;44.916;37.998;2023-04-04T06:32:53;101205.27;;;19.83;50.31
62895;BME280;49204;44.916;37.998;2023-04-04T06:35:24;101197.84;;;20.13;49.43
62895;BME280;49204;44.916;37.998;2023-04-04T06:37:56;101198.06;;;20.10;46.69
62895;BME280;49204;44.916;37.998;2023-04-04T06:40:26;101191.94;;;20.20;46.07
62895;BME280;49204;44.916;37.998;2023-04-04T06:42:55;101190.05;;;20.28;45.74
62895;BME280;49204;44.916;37.998;2023-04-04T06:45:27;101187.54;;;20.38;45.23
62895;BME280;49204;44.916;37.998;2023-04-04T06:47:56;101180.61;;;20.59;45.39
62895;BME280;49204;44.916;37.998;2023-04-04T06:50:24;101181.02;;;20.85;45.03
62895;BME280;49204;44.916;37.998;2023-04-04T06:52:53;101174.59;;;20.98;44.94
62895;BME280;49204;44.916;37.998;2023-04-04T06:55:25;101170.79;;;21.25;44.65
62895;BME280;49204;44.916;37.998;2023-04-04T06:57:54;101164.00;;;21.38;43.70
62895;BME280;49204;44.916;37.998;2023-04-04T07:00:23;101167.50;;;21.27;42.97
62895;BME280;49204;44.916;37.998;2023-04-04T07:02:58;101171.16;;;21.43;43.30
62895;BME280;49204;44.916;37.998;2023-04-04T07:05:28;101161.97;;;21.70;42.81
62895;BME280;49204;44.916;37.998;2023-04-04T07:07:58;101157.22;;;21.85;41.89
62895;BME280;49204;44.916;37.998;2023-04-04T07:10:27;101150.46;;;22.13;41.59
62895;BME280;49204;44.916;37.998;2023-04-04T07:12:55;101153.06;;;22.58;41.37
62895;BME280;49204;44.916;37.998;2023-04-04T07:15:24;101153.74;;;22.92;41.40
62895;BME280;49204;44.916;37.998;2023-04-04T07:17:53;101145.69;;;22.92;40.40
62895;BME280;49204;44.916;37.998;2023-04-04T07:20:22;101135.08;;;23.18;40.27
62895;BME280;49204;44.916;37.998;2023-04-04T07:22:50;101134.28;;;23.42;40.06
62895;BME280;49204;44.916;37.998;2023-04-04T07:25:19;101130.33;;;23.77;39.46
62895;BME280;49204;44.916;37.998;2023-04-04T07:27:48;101134.31;;;23.58;38.19
62895;BME280;49204;44.916;37.998;2023-04-04T07:30:17;101122.82;;;23.71;38.29
62895;BME280;49204;44.916;37.998;2023-04-04T07:32:45;101124.67;;;24.11;38.33
62895;BME280;49204;44.916;37.998;2023-04-04T07:35:14;101123.43;;;24.44;37.80
62895;BME280;49204;44.916;37.998;2023-04-04T07:37:43;101120.75;;;24.64;37.69
62895;BME280;49204;44.916;37.998;2023-04-04T07:40:12;101115.23;;;24.85;37.31
62895;BME280;49204;44.916;37.998;2023-04-04T07:42:44;101115.34;;;25.03;37.11
62895;BME280;49204;44.916;37.998;2023-04-04T07:45:13;101116.38;;;25.16;36.50
62895;BME280;49204;44.916;37.998;2023-04-04T07:47:45;101113.17;;;25.26;36.70
62895;BME280;49204;44.916;37.998;2023-04-04T07:50:15;101109.89;;;25.22;36.42
62895;BME280;49204;44.916;37.998;2023-04-04T07:52:50;101106.31;;;24.65;36.67
62895;BME280;49204;44.916;37.998;2023-04-04T07:55:16;101109.88;;;23.86;36.40
62895;BME280;49204;44.916;37.998;2023-04-04T07:57:45;101108.14;;;23.91;36.56
62895;BME280;49204;44.916;37.998;2023-04-04T08:00:15;101106.69;;;24.21;36.52
62895;BME280;49204;44.916;37.998;2023-04-04T08:02:45;101110.42;;;24.59;36.27
62895;BME280;49204;44.916;37.998;2023-04-04T08:05:14;101101.14;;;25.11;36.47
62895;BME280;49204;44.916;37.998;2023-04-04T08:07:42;101099.84;;;25.24;35.19
62895;BME280;49204;44.916;37.998;2023-04-04T08:10:11;101099.83;;;25.34;34.98
62895;BME280;49204;44.916;37.998;2023-04-04T08:12:39;101100.69;;;25.62;35.01
62895;BME280;49204;44.916;37.998;2023-04-04T08:15:08;101090.98;;;25.93;35.13
62895;BME280;49204;44.916;37.998;2023-04-04T08:17:37;101095.97;;;26.20;34.52
62895;BME280;49204;44.916;37.998;2023-04-04T08:20:07;101088.84;;;26.33;34.32
62895;BME280;49204;44.916;37.998;2023-04-04T08:22:36;101080.47;;;26.40;33.44
62895;BME280;49204;44.916;37.998;2023-04-04T08:25:05;101065.66;;;26.26;33.17
62895;BME280;49204;44.916;37.998;2023-04-04T08:27:34;101059.63;;;26.28;33.25
62895;BME280;49204;44.916;37.998;2023-04-04T08:30:03;101052.59;;;26.57;33.77
62895;BME280;49204;44.916;37.998;2023-04-04T08:32:31;101057.61;;;26.70;32.93
62895;BME280;49204;44.916;37.998;2023-04-04T08:35:00;101051.38;;;26.70;33.00
62895;BME280;49204;44.916;37.998;2023-04-04T08:37:29;101052.66;;;26.44;32.62
62895;BME280;49204;44.916;37.998;2023-04-04T08:39:57;101041.38;;;26.48;32.83
62895;BME280;49204;44.916;37.998;2023-04-04T08:42:28;101032.84;;;26.57;33.05
62895;BME280;49204;44.916;37.998;2023-04-04T08:44:59;101035.96;;;26.26;32.90
62895;BME280;49204;44.916;37.998;2023-04-04T08:47:31;101038.84;;;26.25;33.45
62895;BME280;49204;44.916;37.998;2023-04-04T08:50:04;101034.41;;;26.19;33.46
62895;BME280;49204;44.916;37.998;2023-04-04T08:52:34;101038.09;;;25.87;33.36
62895;BME280;49204;44.916;37.998;2023-04-04T08:55:04;101031.50;;;25.85;33.31
62895;BME280;49204;44.916;37.998;2023-04-04T08:57:34;101021.84;;;26.10;33.60
62895;BME280;49204;44.916;37.998;2023-04-04T09:00:05;101020.48;;;26.28;33.22
62895;BME280;49204;44.916;37.998;2023-04-04T09:05:08;101012.42;;;26.54;33.37
62895;BME280;49204;44.916;37.998;2023-04-04T09:07:40;101000.96;;;26.79;32.61
62895;BME280;49204;44.916;37.998;2023-04-04T09:10:10;100997.48;;;26.94;32.33
62895;BME280;49204;44.916;37.998;2023-04-04T09:12:44;100988.03;;;26.94;31.88
62895;BME280;49204;44.916;37.998;2023-04-04T09:15:17;100997.18;;;26.67;31.81
62895;BME280;49204;44.916;37.998;2023-04-04T09:17:45;100994.81;;;26.50;32.32
62895;BME280;49204;44.916;37.998;2023-04-04T09:23:07;100971.95;;;26.89;32.39
62895;BME280;49204;44.916;37.998;2023-04-04T09:25:36;100959.19;;;26.69;32.29
62895;BME280;49204;44.916;37.998;2023-04-04T09:28:06;100963.70;;;26.90;32.69
62895;BME280;49204;44.916;37.998;2023-04-04T09:30:34;100967.80;;;26.46;32.42
62895;BME280;49204;44.916;37.998;2023-04-04T09:33:05;100961.75;;;25.72;33.03
62895;BME280;49204;44.916;37.998;2023-04-04T09:35:36;100963.98;;;25.03;33.52
62895;BME280;49204;44.916;37.998;2023-04-04T09:38:06;100960.13;;;24.35;34.12
62895;BME280;49204;44.916;37.998;2023-04-04T09:40:36;100949.27;;;23.98;34.98
62895;BME280;49204;44.916;37.998;2023-04-04T09:43:06;100957.62;;;23.85;35.39
62895;BME280;49204;44.916;37.998;2023-04-04T09:45:41;100955.00;;;23.79;35.47
62895;BME280;49204;44.916;37.998;2023-04-04T09:48:11;100949.66;;;24.03;35.66
62895;BME280;49204;44.916;37.998;2023-04-04T09:50:46;100942.47;;;24.03;35.55
62895;BME280;49204;44.916;37.998;2023-04-04T09:53:19;100948.75;;;24.08;35.58
62895;BME280;49204;44.916;37.998;2023-04-04T09:55:55;100944.28;;;24.22;35.35
62895;BME280;49204;44.916;37.998;2023-04-04T09:58:28;100941.67;;;24.17;35.51
62895;BME280;49204;44.916;37.998;2023-04-04T10:01:00;100946.13;;;24.22;35.55
62895;BME280;49204;44.916;37.998;2023-04-04T10:03:29;100936.80;;;24.40;35.24
62895;BME280;49204;44.916;37.998;2023-04-04T10:06:00;100932.59;;;24.51;35.32
62895;BME280;49204;44.916;37.998;2023-04-04T10:08:31;100934.19;;;24.44;34.25
62895;BME280;49204;44.916;37.998;2023-04-04T10:11:02;100926.38;;;24.17;34.33
62895;BME280;49204;44.916;37.998;2023-04-04T10:13:33;100922.47;;;24.16;34.62
62895;BME280;49204;44.916;37.998;2023-04-04T10:16:10;100919.38;;;24.01;34.66
62895;BME280;49204;44.916;37.998;2023-04-04T10:18:39;100918.87;;;23.72;34.82
62895;BME280;49204;44.916;37.998;2023-04-04T10:21:08;100926.84;;;23.48;35.05
62895;BME280;49204;44.916;37.998;2023-04-04T10:23:37;100916.22;;;23.37;35.56
62895;BME280;49204;44.916;37.998;2023-04-04T10:26:07;100920.02;;;23.35;35.84
62895;BME280;49204;44.916;37.998;2023-04-04T10:28:36;100918.73;;;23.29;36.18
62895;BME280;49204;44.916;37.998;2023-04-04T10:31:24;100924.73;;;23.17;36.22
62895;BME280;49204;44.916;37.998;2023-04-04T10:34:21;100917.58;;;22.97;36.17
62895;BME280;49204;44.916;37.998;2023-04-04T10:36:57;100906.89;;;22.91;36.56
62895;BME280;49204;44.916;37.998;2023-04-04T10:39:39;100903.04;;;22.84;36.69
62895;BME280;49204;44.916;37.998;2023-04-04T10:42:10;100916.11;;;22.67;36.54
62895;BME280;49204;44.916;37.998;2023-04-04T10:44:40;100905.98;;;22.50;36.80
62895;BME280;49204;44.916;37.998;2023-04-04T10:47:17;100896.76;;;22.43;36.86
62895;BME280;49204;44.916;37.998;2023-04-04T10:49:49;100900.56;;;22.40;37.03
62895;BME280;49204;44.916;37.998;2023-04-04T10:52:22;100893.73;;;22.26;36.97
62895;BME280;49204;44.916;37.998;2023-04-04T10:54:57;100894.73;;;22.14;37.18
62895;BME280;49204;44.916;37.998;2023-04-04T10:57:26;100888.66;;;22.12;37.44
62895;BME280;49204;44.916;37.998;2023-04-04T11:00:12;100879.23;;;22.17;37.56
62895;BME280;49204;44.916;37.998;2023-04-04T11:02:46;100874.63;;;22.14;37.51
62895;BME280;49204;44.916;37.998;2023-04-04T11:05:34;100877.09;;;22.11;37.53
62895;BME280;49204;44.916;37.998;2023-04-04T11:08:11;100872.75;;;22.20;37.68
62895;BME280;49204;44.916;37.998;2023-04-04T11:10:43;100868.47;;;22.23;37.42
62895;BME280;49204;44.916;37.998;2023-04-04T11:13:26;100866.21;;;22.13;37.32
62895;BME280;49204;44.916;37.998;2023-04-04T11:16:10;100863.15;;;22.17;37.55
62895;BME280;49204;44.916;37.998;2023-04-04T11:21:20;100860.97;;;22.17;37.19
62895;BME280;49204;44.916;37.998;2023-04-04T11:26:35;100854.22;;;22.02;37.42
62895;BME280;49204;44.916;37.998;2023-04-04T11:29:05;100845.46;;;22.00;37.56
62895;BME280;49204;44.916;37.998;2023-04-04T11:31:44;100842.69;;;21.95;37.54
62895;BME280;49204;44.916;37.998;2023-04-04T11:34:14;100843.78;;;21.93;37.62
62895;BME280;49204;44.916;37.998;2023-04-04T11:36:51;100844.56;;;21.89;37.75
62895;BME280;49204;44.916;37.998;2023-04-04T11:42:01;100844.27;;;21.77;38.06
62895;BME280;49204;44.916;37.998;2023-04-04T11:44:41;100836.09;;;21.78;38.27
62895;BME280;49204;44.916;37.998;2023-04-04T11:47:11;100834.97;;;21.81;38.41
62895;BME280;49204;44.916;37.998;2023-04-04T11:49:41;100836.47;;;21.74;38.58
62895;BME280;49204;44.916;37.998;2023-04-04T11:52:15;100824.94;;;21.68;38.76
62895;BME280;49204;44.916;37.998;2023-04-04T11:54:46;100826.81;;;21.62;38.90
62895;BME280;49204;44.916;37.998;2023-04-04T11:57:17;100827.55;;;21.52;38.99
62895;BME280;49204;44.916;37.998;2023-04-04T11:59:48;100825.39;;;21.46;39.09
62895;BME280;49204;44.916;37.998;2023-04-04T12:02:25;100820.88;;;21.41;39.21
62895;BME280;49204;44.916;37.998;2023-04-04T12:04:58;100821.40;;;21.35;39.40
62895;BME280;49204;44.916;37.998;2023-04-04T12:07:29;100822.14;;;21.31;39.60
62895;BME280;49204;44.916;37.998;2023-04-04T12:09:57;100824.84;;;21.26;39.58
62895;BME280;49204;44.916;37.998;2023-04-04T12:12:26;100828.98;;;21.24;39.75
62895;BME280;49204;44.916;37.998;2023-04-04T12:14:55;100824.59;;;21.29;39.91
62895;BME280;49204;44.916;37.998;2023-04-04T12:17:23;100821.27;;;21.36;39.83
62895;BME280;49204;44.916;37.998;2023-04-04T12:19:53;100812.38;;;21.42;39.75
62895;BME280;49204;44.916;37.998;2023-04-04T12:22:22;100805.06;;;21.49;39.75
62895;BME280;49204;44.916;37.998;2023-04-04T12:24:52;100805.75;;;21.57;39.63
62895;BME280;49204;44.916;37.998;2023-04-04T12:27:21;100795.00;;;21.63;39.46
62895;BME280;49204;44.916;37.998;2023-04-04T12:29:49;100785.25;;;21.67;39.48
62895;BME280;49204;44.916;37.998;2023-04-04T12:32:18;100784.21;;;21.74;39.52
62895;BME280;49204;44.916;37.998;2023-04-04T12:34:47;100776.38;;;21.82;39.64
62895;BME280;49204;44.916;37.998;2023-04-04T12:37:16;100767.62;;;21.80;39.54
62895;BME280;49204;44.916;37.998;2023-04-04T12:39:47;100763.86;;;21.77;39.54
62895;BME280;49204;44.916;37.998;2023-04-04T12:42:23;100762.59;;;21.66;39.63
62895;BME280;49204;44.916;37.998;2023-04-04T12:44:53;100762.38;;;21.57;39.87
62895;BME280;49204;44.916;37.998;2023-04-04T12:47:22;100752.11;;;21.47;39.96
62895;BME280;49204;44.916;37.998;2023-04-04T12:49:53;100751.86;;;21.39;40.00
62895;BME280;49204;44.916;37.998;2023-04-04T12:52:27;100749.33;;;21.32;40.27
62895;BME280;49204;44.916;37.998;2023-04-04T12:55:07;100754.47;;;21.29;40.35
62895;BME280;49204;44.916;37.998;2023-04-04T12:57:38;100755.91;;;21.33;40.51
62895;BME280;49204;44.916;37.998;2023-04-04T13:00:07;100754.56;;;21.33;40.32
62895;BME280;49204;44.916;37.998;2023-04-04T13:02:37;100760.30;;;21.34;40.31
62895;BME280;49204;44.916;37.998;2023-04-04T13:05:06;100760.17;;;21.36;39.95
62895;BME280;49204;44.916;37.998;2023-04-04T13:07:38;100765.16;;;21.35;39.85
62895;BME280;49204;44.916;37.998;2023-04-04T13:10:12;100753.03;;;21.25;39.73
62895;BME280;49204;44.916;37.998;2023-04-04T13:12:59;100765.11;;;21.19;39.89
62895;BME280;49204;44.916;37.998;2023-04-04T13:18:20;100751.59;;;21.15;40.03